createdAt,value
2018-08-07T00:00:26.202Z,85.75
2018-08-07T00:01:26.124Z,86.57
2018-08-07T00:02:26.052Z,86.57
2018-08-07T00:03:25.986Z,84.93
2018-08-07T00:04:25.910Z,85.60
2018-08-07T00:05:25.846Z,86.08
2018-08-07T00:06:25.770Z,85.70
2018-08-07T00:07:25.708Z,85.99
2018-08-07T00:08:25.627Z,85.89
2018-08-07T00:09:25.561Z,87.05
2018-08-07T00:10:25.483Z,86.28
2018-08-07T00:11:25.420Z,86.38
2018-08-07T00:12:25.345Z,85.89
2018-08-07T00:13:25.273Z,84.93
2018-08-07T00:14:25.205Z,85.41
2018-08-07T00:15:25.130Z,84.83
2018-08-07T00:16:25.059Z,84.93
2018-08-07T00:17:24.993Z,85.70
2018-08-07T00:18:24.917Z,85.60
2018-08-07T00:19:24.843Z,85.80
2018-08-07T00:20:24.775Z,85.60
2018-08-07T00:21:24.705Z,84.83
2018-08-07T00:22:24.631Z,85.02
2018-08-07T00:23:24.557Z,85.12
2018-08-07T00:24:24.488Z,84.06
2018-08-07T00:25:24.416Z,83.67
2018-08-07T00:26:24.351Z,83.58
2018-08-07T00:27:24.277Z,84.16
2018-08-07T00:28:24.203Z,83.67
2018-08-07T00:29:24.135Z,84.25
2018-08-07T00:30:24.060Z,85.70
2018-08-07T00:31:23.995Z,84.93
2018-08-07T00:32:23.925Z,84.35
2018-08-07T00:33:23.851Z,85.12
2018-08-07T00:34:23.777Z,85.12
2018-08-07T00:35:23.713Z,85.12
2018-08-07T00:36:23.640Z,84.64
2018-08-07T00:37:23.565Z,85.80
2018-08-07T00:38:23.507Z,86.28
2018-08-07T00:39:30.594Z,86.14
2018-08-07T00:41:27.296Z,86.72
2018-08-07T00:42:27.172Z,86.91
2018-08-07T00:44:31.037Z,87.49
2018-08-07T00:45:30.916Z,87.68
2018-08-07T00:46:30.845Z,87.49
2018-08-07T00:47:30.776Z,88.26
2018-08-07T00:48:30.702Z,87.20
2018-08-07T00:49:30.632Z,88.45
2018-08-07T00:50:30.560Z,88.70
2018-08-07T00:51:30.493Z,89.57
2018-08-07T00:52:30.416Z,89.18
2018-08-07T00:53:30.348Z,89.47
2018-08-07T00:54:30.281Z,89.76
2018-08-07T00:55:30.204Z,90.24
2018-08-07T00:56:30.132Z,89.47
2018-08-07T00:57:30.064Z,89.57
2018-08-07T00:58:29.987Z,89.28
2018-08-07T00:59:29.918Z,89.28
2018-08-07T01:00:29.845Z,89.37
2018-08-07T01:01:29.776Z,89.18
2018-08-07T01:02:29.704Z,88.89
2018-08-07T01:03:29.633Z,88.79
2018-08-07T01:04:29.559Z,88.51
2018-08-07T01:05:29.490Z,88.70
2018-08-07T01:06:29.417Z,88.79
2018-08-07T01:07:29.345Z,89.86
2018-08-07T01:08:29.273Z,89.57
2018-08-07T01:09:29.203Z,89.28
2018-08-07T01:10:29.131Z,89.42
2018-08-07T01:11:29.060Z,89.13
2018-08-07T01:12:28.987Z,89.47
2018-08-07T01:13:28.919Z,89.57
2018-08-07T01:14:28.845Z,88.60
2018-08-07T01:15:28.784Z,88.70
2018-08-07T01:16:28.703Z,89.18
2018-08-07T01:17:28.631Z,89.28
2018-08-07T01:18:28.564Z,89.32
2018-08-07T01:19:28.501Z,89.61
2018-08-07T01:20:28.421Z,88.65
2018-08-07T01:21:28.343Z,88.26
2018-08-07T01:22:28.275Z,88.75
2018-08-07T01:23:28.208Z,89.03
2018-08-07T01:24:28.129Z,89.23
2018-08-07T01:25:28.061Z,89.61
2018-08-07T01:26:27.989Z,89.51
2018-08-07T01:27:27.922Z,89.23
2018-08-07T01:28:27.849Z,89.81
2018-08-07T01:29:27.773Z,89.13
2018-08-07T01:30:27.708Z,89.42
2018-08-07T01:31:27.637Z,89.90
2018-08-07T01:32:27.564Z,90.38
2018-08-07T01:33:27.489Z,90.29
2018-08-07T01:34:27.417Z,90.24
2018-08-07T01:35:27.344Z,90.92
2018-08-07T01:36:27.273Z,90.34
2018-08-07T01:37:27.204Z,90.63
2018-08-07T01:38:27.132Z,90.34
2018-08-07T01:39:27.068Z,90.63
2018-08-07T01:40:26.993Z,90.72
2018-08-07T01:41:26.917Z,90.72
2018-08-07T01:42:26.843Z,90.05
2018-08-07T01:43:26.776Z,90.72
2018-08-07T01:44:26.703Z,90.82
2018-08-07T01:45:26.630Z,91.02
2018-08-07T01:46:26.558Z,90.82
2018-08-07T01:47:26.489Z,90.82
2018-08-07T01:48:26.416Z,90.72
2018-08-07T01:49:26.351Z,91.02
2018-08-07T01:50:26.272Z,91.02
2018-08-07T01:51:26.202Z,91.69
2018-08-07T01:52:26.135Z,91.40
2018-08-07T01:53:26.058Z,92.08
2018-08-07T01:54:25.986Z,91.20
2018-08-07T01:55:25.914Z,91.50
2018-08-07T01:56:25.848Z,91.60
2018-08-07T01:57:25.776Z,91.50
2018-08-07T01:58:25.702Z,92.17
2018-08-07T01:59:25.628Z,92.65
2018-08-07T02:00:25.557Z,92.41
2018-08-07T02:01:25.488Z,92.32
2018-08-07T02:02:25.412Z,92.51
2018-08-07T02:03:25.349Z,92.03
2018-08-07T02:04:25.271Z,92.71
2018-08-07T02:05:25.199Z,92.13
2018-08-07T02:06:25.130Z,92.80
2018-08-07T02:07:25.057Z,92.90
2018-08-07T02:08:24.984Z,93.19
2018-08-07T02:09:24.913Z,93.57
2018-08-07T02:10:24.851Z,93.57
2018-08-07T02:11:24.769Z,93.19
2018-08-07T02:12:24.696Z,92.80
2018-08-07T02:13:24.624Z,93.09
2018-08-07T02:14:24.556Z,92.17
2018-08-07T02:15:24.483Z,92.90
2018-08-07T02:16:24.410Z,93.09
2018-08-07T02:17:24.339Z,93.38
2018-08-07T02:18:24.272Z,93.23
2018-08-07T02:19:24.196Z,92.94
2018-08-07T02:20:24.126Z,92.90
2018-08-07T02:21:24.052Z,93.04
2018-08-07T02:22:23.991Z,92.85
2018-08-07T02:23:23.912Z,93.13
2018-08-07T02:24:23.846Z,93.13
2018-08-07T02:25:23.770Z,92.08
2018-08-07T02:26:23.696Z,91.98
2018-08-07T02:27:23.624Z,93.43
2018-08-07T02:28:23.550Z,94.29
2018-08-07T02:29:23.477Z,94.20
2018-08-07T02:30:23.408Z,94.00
2018-08-07T02:31:23.335Z,94.29
2018-08-07T02:32:23.262Z,94.20
2018-08-07T02:33:23.199Z,94.68
2018-08-07T02:34:23.126Z,95.06
2018-08-07T02:35:23.055Z,96.12
2018-08-07T02:36:22.979Z,95.64
2018-08-07T02:37:22.909Z,95.54
2018-08-07T02:38:22.839Z,95.54
2018-08-07T02:39:22.773Z,94.87
2018-08-07T02:40:22.696Z,94.87
2018-08-07T02:41:22.625Z,96.32
2018-08-07T02:42:22.559Z,95.45
2018-08-07T02:43:22.479Z,94.29
2018-08-07T02:44:22.403Z,94.48
2018-08-07T02:45:22.336Z,94.48
2018-08-07T02:46:22.265Z,94.39
2018-08-07T02:47:22.188Z,93.62
2018-08-07T02:48:22.119Z,93.81
2018-08-07T02:49:22.050Z,94.10
2018-08-07T02:50:21.978Z,94.20
2018-08-07T02:51:21.912Z,94.20
2018-08-07T02:52:21.835Z,93.52
2018-08-07T02:53:21.763Z,94.29
2018-08-07T02:54:21.689Z,93.81
2018-08-07T02:55:21.622Z,94.10
2018-08-07T02:56:21.549Z,94.00
2018-08-07T02:57:21.472Z,93.91
2018-08-07T02:58:21.402Z,94.10
2018-08-07T02:59:21.329Z,94.39
2018-08-07T03:00:21.274Z,94.20
2018-08-07T03:01:21.188Z,94.10
2018-08-07T03:02:21.116Z,94.39
2018-08-07T03:03:21.043Z,94.00
2018-08-07T03:04:20.972Z,93.81
2018-08-07T03:05:20.906Z,94.10
2018-08-07T03:06:20.858Z,94.20
2018-08-07T03:07:20.761Z,94.68
2018-08-07T03:08:20.691Z,95.16
2018-08-07T03:09:20.614Z,94.29
2018-08-07T03:10:20.546Z,94.48
2018-08-07T03:11:20.475Z,93.91
2018-08-07T03:12:20.402Z,93.62
2018-08-07T03:13:20.327Z,94.00
2018-08-07T03:14:20.255Z,94.29
2018-08-07T03:15:20.189Z,93.91
2018-08-07T03:16:20.117Z,93.81
2018-08-07T03:17:20.048Z,93.91
2018-08-07T03:18:19.975Z,94.68
2018-08-07T03:19:19.898Z,94.34
2018-08-07T03:20:19.825Z,95.21
2018-08-07T03:21:19.800Z,95.89
2018-08-07T03:22:19.688Z,95.59
2018-08-07T03:23:19.612Z,95.59
2018-08-07T03:24:19.538Z,95.69
2018-08-07T03:25:19.466Z,95.59
2018-08-07T03:26:19.396Z,96.46
2018-08-07T03:27:19.330Z,96.08
2018-08-07T03:28:19.251Z,96.75
2018-08-07T03:29:19.186Z,96.56
2018-08-07T03:30:19.109Z,96.56
2018-08-07T03:31:19.041Z,96.17
2018-08-07T03:32:18.980Z,95.69
2018-08-07T03:33:18.892Z,96.08
2018-08-07T03:34:18.825Z,96.56
2018-08-07T03:35:18.753Z,95.21
2018-08-07T03:36:18.675Z,95.59
2018-08-07T03:37:18.607Z,95.59
2018-08-07T03:38:18.538Z,95.59
2018-08-07T03:39:18.462Z,95.79
2018-08-07T03:40:18.396Z,95.40
2018-08-07T03:41:18.321Z,95.69
2018-08-07T03:42:18.246Z,95.79
2018-08-07T03:43:18.211Z,96.46
2018-08-07T03:44:18.102Z,95.98
2018-08-07T03:45:18.035Z,95.02
2018-08-07T03:46:17.956Z,94.82
2018-08-07T03:47:17.885Z,94.92
2018-08-07T03:48:17.817Z,95.02
2018-08-07T03:49:17.790Z,95.11
2018-08-07T03:50:17.669Z,95.98
2018-08-07T03:51:17.602Z,95.02
2018-08-07T03:52:17.530Z,94.82
2018-08-07T03:53:17.458Z,95.07
2018-08-07T03:54:17.390Z,95.69
2018-08-07T03:55:17.310Z,95.31
2018-08-07T03:56:17.238Z,95.79
2018-08-07T03:57:17.172Z,95.31
2018-08-07T03:58:17.103Z,95.50
2018-08-07T03:59:17.023Z,95.94
2018-08-07T04:00:16.950Z,95.31
2018-08-07T04:01:16.878Z,96.12
2018-08-07T04:02:16.806Z,96.12
2018-08-07T04:03:16.741Z,96.12
2018-08-07T04:04:16.659Z,95.50
2018-08-07T04:05:16.597Z,96.08
2018-08-07T04:06:16.519Z,96.51
2018-08-07T04:07:16.448Z,96.66
2018-08-07T04:08:16.388Z,95.89
2018-08-07T04:09:16.303Z,95.31
2018-08-07T04:10:16.231Z,95.79
2018-08-07T04:11:16.159Z,95.31
2018-08-07T04:12:16.091Z,95.79
2018-08-07T04:13:16.013Z,95.31
2018-08-07T04:14:15.942Z,95.98
2018-08-07T04:15:15.870Z,96.22
2018-08-07T04:16:15.798Z,96.51
2018-08-07T04:17:15.730Z,96.80
2018-08-07T04:18:15.660Z,97.09
2018-08-07T04:19:15.582Z,96.89
2018-08-07T04:20:15.515Z,97.47
2018-08-07T04:21:15.436Z,97.38
2018-08-07T04:22:15.369Z,97.67
2018-08-07T04:23:15.298Z,96.61
2018-08-07T04:24:15.222Z,96.51
2018-08-07T04:25:15.150Z,96.61
2018-08-07T04:26:15.077Z,95.84
2018-08-07T04:27:15.004Z,96.12
2018-08-07T04:28:14.931Z,96.12
2018-08-07T04:29:14.871Z,96.51
2018-08-07T04:30:14.793Z,96.22
2018-08-07T04:31:14.715Z,96.61
2018-08-07T04:32:14.647Z,96.22
2018-08-07T04:33:14.575Z,96.70
2018-08-07T04:34:14.552Z,96.70
2018-08-07T04:35:14.433Z,96.22
2018-08-07T04:36:14.364Z,96.42
2018-08-07T04:37:14.308Z,95.74
2018-08-07T04:38:14.228Z,95.84
2018-08-07T04:39:14.141Z,96.51
2018-08-07T04:40:14.068Z,96.42
2018-08-07T04:41:13.995Z,96.12
2018-08-07T04:42:13.923Z,96.12
2018-08-07T04:43:13.854Z,96.32
2018-08-07T04:44:13.778Z,96.08
2018-08-07T04:45:13.710Z,95.98
2018-08-07T04:46:13.644Z,96.17
2018-08-07T04:47:13.568Z,96.56
2018-08-07T04:48:13.491Z,96.75
2018-08-07T04:49:13.430Z,96.27
2018-08-07T04:50:13.345Z,96.75
2018-08-07T04:51:13.272Z,96.08
2018-08-07T04:52:13.204Z,96.27
2018-08-07T04:53:13.153Z,95.69
2018-08-07T04:54:13.058Z,96.46
2018-08-07T04:55:12.984Z,96.56
2018-08-07T04:56:12.917Z,96.37
2018-08-07T04:57:12.847Z,96.56
2018-08-07T04:58:12.771Z,96.75
2018-08-07T04:59:12.703Z,95.40
2018-08-07T05:00:12.632Z,95.40
2018-08-07T05:01:12.553Z,95.79
2018-08-07T05:02:12.481Z,95.69
2018-08-07T05:03:12.409Z,95.02
2018-08-07T05:04:12.344Z,94.73
2018-08-07T05:05:12.368Z,94.54
2018-08-07T05:06:12.200Z,95.02
2018-08-07T05:07:12.126Z,94.73
2018-08-07T05:08:12.051Z,94.15
2018-08-07T05:09:12.006Z,94.44
2018-08-07T05:10:11.910Z,95.21
2018-08-07T05:11:11.838Z,95.79
2018-08-07T05:12:11.761Z,96.27
2018-08-07T05:13:11.696Z,96.94
2018-08-07T05:14:11.677Z,96.85
2018-08-07T05:15:11.549Z,97.33
2018-08-07T05:16:11.478Z,96.75
2018-08-07T05:17:11.403Z,97.14
2018-08-07T05:18:11.336Z,97.72
2018-08-07T05:19:11.264Z,98.00
2018-08-07T05:20:11.192Z,98.20
2018-08-07T05:21:11.117Z,98.25
2018-08-07T05:22:11.101Z,98.05
2018-08-07T05:23:10.977Z,98.34
2018-08-07T05:24:10.902Z,97.96
2018-08-07T05:25:10.834Z,97.57
2018-08-07T05:26:10.778Z,97.96
2018-08-07T05:27:10.693Z,97.47
2018-08-07T05:28:10.617Z,97.38
2018-08-07T05:29:10.550Z,96.70
2018-08-07T05:30:10.477Z,96.61
2018-08-07T05:31:10.407Z,95.84
2018-08-07T05:32:10.326Z,95.40
2018-08-07T05:33:10.256Z,95.50
2018-08-07T05:34:10.199Z,95.69
2018-08-07T05:35:10.123Z,93.47
2018-08-07T05:36:10.091Z,93.66
2018-08-07T05:37:09.972Z,94.15
2018-08-07T05:38:09.900Z,93.76
2018-08-07T05:39:09.831Z,93.47
2018-08-07T05:40:09.750Z,93.85
2018-08-07T05:41:09.683Z,93.85
2018-08-07T05:42:09.609Z,93.66
2018-08-07T05:43:09.539Z,93.18
2018-08-07T05:44:09.478Z,93.08
2018-08-07T05:45:09.413Z,93.71
2018-08-07T05:46:09.328Z,93.32
2018-08-07T05:47:09.259Z,93.42
2018-08-07T05:48:09.243Z,93.80
2018-08-07T05:49:09.137Z,93.80
2018-08-07T05:50:09.168Z,93.23
2018-08-07T05:51:09.471Z,93.13
2018-08-07T05:52:08.898Z,93.23
2018-08-07T05:53:08.825Z,94.00
2018-08-07T05:54:08.753Z,93.71
2018-08-07T05:55:08.740Z,92.84
2018-08-07T05:56:08.614Z,92.65
2018-08-07T05:57:08.547Z,91.88
2018-08-07T05:58:08.469Z,91.68
2018-08-07T05:59:08.399Z,91.88
2018-08-07T06:00:08.328Z,91.54
2018-08-07T06:01:08.255Z,91.88
2018-08-07T06:02:08.188Z,91.64
2018-08-07T06:03:08.138Z,91.83
2018-08-07T06:04:08.045Z,90.72
2018-08-07T06:05:07.969Z,90.67
2018-08-07T06:06:07.898Z,91.01
2018-08-07T06:07:07.834Z,92.26
2018-08-07T06:08:07.756Z,92.36
2018-08-07T06:09:07.692Z,91.59
2018-08-07T06:10:07.614Z,90.91
2018-08-07T06:11:07.562Z,89.85
2018-08-07T06:12:07.482Z,88.31
2018-08-07T06:13:07.402Z,87.82
2018-08-07T06:14:07.340Z,87.05
2018-08-07T06:15:07.260Z,88.31
2018-08-07T06:16:07.185Z,86.76
2018-08-07T06:17:07.115Z,86.66
2018-08-07T06:18:07.041Z,85.70
2018-08-07T06:19:07.009Z,84.83
2018-08-07T06:20:06.900Z,84.25
2018-08-07T06:21:06.841Z,84.93
2018-08-07T06:22:06.758Z,85.02
2018-08-07T06:23:06.691Z,83.00
2018-08-07T06:24:06.615Z,81.78
2018-08-07T06:25:06.553Z,78.79
2018-08-07T06:26:06.483Z,77.25
2018-08-07T06:27:06.413Z,78.11
2018-08-07T06:28:06.361Z,78.21
2018-08-07T06:29:06.259Z,76.18
2018-08-07T06:30:06.190Z,74.93
2018-08-07T06:31:06.119Z,74.25
2018-08-07T06:32:06.047Z,74.73
2018-08-07T06:33:05.975Z,75.64
2018-08-07T06:34:05.906Z,75.54
2018-08-07T06:35:05.843Z,75.35
2018-08-07T06:36:05.765Z,76.22
2018-08-07T06:37:05.691Z,76.03
2018-08-07T06:38:05.622Z,77.57
2018-08-07T06:39:05.549Z,76.03
2018-08-07T06:41:37.549Z,74.87
2018-08-07T06:42:37.432Z,74.38
2018-08-07T06:44:42.752Z,74.38
2018-08-07T06:45:42.672Z,73.42
2018-08-07T06:47:47.029Z,71.20
2018-08-07T06:48:46.912Z,68.91
2018-08-07T06:50:51.227Z,68.91
2018-08-07T06:51:51.154Z,69.01
2018-08-07T06:53:55.510Z,70.17
2018-08-07T06:54:55.393Z,69.98
2018-08-07T06:56:59.387Z,69.40
2018-08-07T06:57:59.252Z,69.20
2018-08-07T07:00:03.568Z,68.66
2018-08-07T07:01:03.487Z,66.63
2018-08-07T07:03:07.838Z,67.49
2018-08-07T07:04:07.720Z,67.88
2018-08-07T07:06:11.571Z,67.30
2018-08-07T07:07:11.492Z,68.08
2018-08-07T07:09:15.846Z,67.98
2018-08-07T07:10:15.730Z,67.30
2018-08-07T07:12:20.093Z,67.43
2018-08-07T07:13:19.975Z,67.53
2018-08-07T07:15:24.291Z,67.53
2018-08-07T07:16:24.236Z,67.33
2018-08-07T07:18:28.568Z,67.33
2018-08-07T07:19:28.456Z,67.72
2018-08-07T07:21:21.697Z,67.43
2018-08-07T07:22:21.624Z,67.63
2018-08-07T07:24:25.976Z,66.37
2018-08-07T07:25:25.857Z,66.17
2018-08-07T07:27:30.222Z,66.17
2018-08-07T07:28:30.106Z,65.82
2018-08-07T07:30:34.421Z,64.72
2018-08-07T07:31:34.340Z,64.17
2018-08-07T07:32:34.275Z,64.47
2018-08-07T07:33:34.202Z,64.17
2018-08-07T07:34:34.204Z,64.17
2018-08-07T07:35:34.065Z,64.37
2018-08-07T07:36:33.995Z,64.17
2018-08-07T07:37:34.483Z,64.89
2018-08-07T07:38:33.858Z,64.50
2018-08-07T07:39:33.808Z,65.27
2018-08-07T07:40:33.722Z,64.98
2018-08-07T07:41:33.643Z,65.08
2018-08-07T07:42:33.573Z,65.47
2018-08-07T07:43:33.507Z,65.66
2018-08-07T07:44:33.435Z,65.08
2018-08-07T07:45:33.367Z,64.59
2018-08-07T07:46:33.301Z,64.01
2018-08-07T07:47:33.222Z,64.20
2018-08-07T07:48:33.153Z,64.72
2018-08-07T07:49:33.095Z,62.88
2018-08-07T07:50:33.016Z,63.17
2018-08-07T07:51:32.945Z,63.46
2018-08-07T07:52:32.877Z,63.56
2018-08-07T07:53:32.808Z,63.07
2018-08-07T07:54:32.737Z,63.37
2018-08-07T07:55:32.669Z,63.17
2018-08-07T07:56:32.597Z,63.46
2018-08-07T07:57:32.530Z,63.59
2018-08-07T07:58:32.461Z,63.17
2018-08-07T07:59:32.390Z,62.98
2018-08-07T08:00:32.321Z,63.40
2018-08-07T08:01:32.258Z,62.62
2018-08-07T08:02:32.183Z,63.20
2018-08-07T08:03:32.113Z,62.43
2018-08-07T08:04:32.055Z,62.23
2018-08-07T08:05:32.006Z,62.43
2018-08-07T08:06:31.909Z,62.91
2018-08-07T08:07:31.836Z,62.62
2018-08-07T08:08:31.765Z,63.01
2018-08-07T08:09:31.701Z,63.01
2018-08-07T08:10:31.629Z,62.33
2018-08-07T08:11:31.560Z,61.75
2018-08-07T08:12:31.493Z,61.36
2018-08-07T08:13:31.420Z,61.68
2018-08-07T08:14:31.353Z,62.04
2018-08-07T08:15:31.281Z,61.46
2018-08-07T08:16:31.270Z,61.58
2018-08-07T08:17:31.151Z,61.49
2018-08-07T08:18:31.076Z,61.49
2018-08-07T08:19:31.008Z,60.52
2018-08-07T08:20:30.936Z,60.52
2018-08-07T08:21:30.872Z,60.13
2018-08-07T08:22:30.891Z,60.42
2018-08-07T08:23:30.742Z,59.45
2018-08-07T08:24:30.662Z,60.25
2018-08-07T08:25:30.593Z,60.35
2018-08-07T08:26:30.526Z,60.35
2018-08-07T08:27:30.462Z,60.94
2018-08-07T08:28:30.403Z,62.59
2018-08-07T08:29:30.542Z,61.42
2018-08-07T08:30:30.250Z,62.39
2018-08-07T08:31:30.180Z,62.52
2018-08-07T08:32:30.113Z,63.10
2018-08-07T08:33:30.048Z,63.01
2018-08-07T08:34:29.981Z,61.45
2018-08-07T08:35:30.016Z,61.25
2018-08-07T08:36:29.837Z,61.45
2018-08-07T08:37:29.772Z,61.74
2018-08-07T08:38:29.706Z,62.23
2018-08-07T08:39:29.636Z,61.65
2018-08-07T08:40:29.575Z,61.58
2018-08-07T08:41:29.497Z,61.00
2018-08-07T08:42:29.427Z,61.58
2018-08-07T08:43:29.365Z,61.29
2018-08-07T08:44:29.294Z,60.61
2018-08-07T08:45:29.221Z,59.25
2018-08-07T08:46:29.156Z,59.44
2018-08-07T08:47:29.091Z,59.64
2018-08-07T08:48:29.025Z,59.25
2018-08-07T08:49:28.948Z,59.25
2018-08-07T08:50:28.883Z,59.15
2018-08-07T08:51:28.810Z,59.38
2018-08-07T08:52:28.749Z,60.15
2018-08-07T08:53:28.676Z,59.15
2018-08-07T08:54:28.611Z,59.18
2018-08-07T08:55:28.543Z,60.15
2018-08-07T08:56:28.469Z,58.47
2018-08-07T08:57:28.400Z,58.89
2018-08-07T08:58:28.341Z,58.95
2018-08-07T08:59:28.268Z,59.38
2018-08-07T09:00:28.198Z,58.31
2018-08-07T09:01:28.139Z,58.21
2018-08-07T09:02:28.062Z,58.11
2018-08-07T09:03:27.995Z,58.98
2018-08-07T09:04:27.924Z,59.28
2018-08-07T09:05:27.858Z,60.64
2018-08-07T09:06:27.789Z,60.44
2018-08-07T09:07:27.721Z,61.02
2018-08-07T09:08:27.654Z,60.28
2018-08-07T09:09:27.586Z,59.38
2018-08-07T09:10:27.598Z,59.11
2018-08-07T09:11:27.505Z,58.43
2018-08-07T09:12:27.416Z,59.21
2018-08-07T09:13:27.314Z,59.01
2018-08-07T09:14:27.246Z,57.95
2018-08-07T09:15:27.178Z,58.72
2018-08-07T09:16:27.109Z,58.23
2018-08-07T09:17:27.042Z,58.82
2018-08-07T09:18:26.979Z,56.68
2018-08-07T09:19:27.000Z,55.80
2018-08-07T09:20:26.850Z,55.15
2018-08-07T09:21:26.773Z,55.83
2018-08-07T09:22:26.709Z,55.44
2018-08-07T09:23:26.638Z,55.54
2018-08-07T09:24:26.565Z,55.25
2018-08-07T09:25:26.593Z,56.51
2018-08-07T09:26:26.440Z,56.71
2018-08-07T09:27:26.397Z,57.59
2018-08-07T09:28:26.295Z,55.15
2018-08-07T09:29:26.396Z,54.47
2018-08-07T09:30:26.175Z,54.96
2018-08-07T09:31:26.100Z,54.96
2018-08-07T09:32:26.024Z,55.15
2018-08-07T09:33:25.955Z,55.96
2018-08-07T09:34:25.891Z,55.66
2018-08-07T09:35:25.826Z,54.79
2018-08-07T09:36:25.762Z,54.79
2018-08-07T09:37:25.743Z,54.89
2018-08-07T09:38:25.621Z,53.23
2018-08-07T09:39:25.604Z,53.62
2018-08-07T09:40:25.486Z,53.33
2018-08-07T09:41:25.426Z,53.33
2018-08-07T09:42:25.356Z,52.45
2018-08-07T09:43:25.284Z,52.55
2018-08-07T09:44:25.214Z,53.55
2018-08-07T09:45:25.153Z,54.91
2018-08-07T09:46:25.118Z,53.81
2018-08-07T09:47:25.021Z,52.75
2018-08-07T09:48:24.944Z,52.97
2018-08-07T09:49:24.882Z,53.16
2018-08-07T09:50:24.817Z,52.87
2018-08-07T09:51:24.744Z,51.41
2018-08-07T09:52:24.773Z,52.19
2018-08-07T09:53:24.611Z,52.67
2018-08-07T09:54:24.554Z,52.80
2018-08-07T09:55:24.480Z,51.63
2018-08-07T09:56:24.476Z,51.43
2018-08-07T09:57:24.341Z,52.40
2018-08-07T09:58:24.342Z,51.43
2018-08-07T09:59:24.212Z,51.75
2018-08-07T10:00:24.145Z,51.43
2018-08-07T10:01:24.076Z,52.24
2018-08-07T10:02:24.016Z,52.83
2018-08-07T10:03:23.949Z,52.53
2018-08-07T10:04:23.873Z,52.44
2018-08-07T10:05:23.894Z,52.34
2018-08-07T10:06:23.744Z,52.66
2018-08-07T10:07:23.674Z,52.95
2018-08-07T10:08:23.609Z,53.34
2018-08-07T10:09:23.544Z,51.29
2018-08-07T10:10:23.471Z,50.41
2018-08-07T10:11:23.410Z,49.54
2018-08-07T10:12:23.376Z,48.78
2018-08-07T10:13:23.272Z,49.17
2018-08-07T10:14:23.222Z,50.73
2018-08-07T10:15:23.139Z,51.61
2018-08-07T10:16:23.070Z,51.80
2018-08-07T10:17:23.014Z,50.82
2018-08-07T10:18:22.940Z,50.82
2018-08-07T10:19:22.872Z,51.41
2018-08-07T10:20:22.811Z,51.61
2018-08-07T10:21:22.858Z,51.41
2018-08-07T10:22:22.673Z,49.95
2018-08-07T10:23:22.678Z,50.14
2018-08-07T10:24:22.550Z,50.36
2018-08-07T10:25:22.472Z,50.65
2018-08-07T10:26:22.415Z,50.65
2018-08-07T10:27:22.347Z,50.85
2018-08-07T10:28:22.281Z,50.88
2018-08-07T10:29:22.209Z,49.80
2018-08-07T10:30:22.217Z,50.39
2018-08-07T10:31:22.082Z,51.24
2018-08-07T10:32:22.015Z,51.86
2018-08-07T10:33:21.952Z,51.56
2018-08-07T10:34:21.877Z,51.95
2018-08-07T10:35:21.820Z,51.46
2018-08-07T10:36:21.749Z,51.37
2018-08-07T10:37:21.689Z,51.39
2018-08-07T10:38:21.620Z,51.78
2018-08-07T10:39:21.550Z,51.29
2018-08-07T10:40:21.495Z,50.61
2018-08-07T10:41:21.472Z,50.22
2018-08-07T10:42:21.362Z,50.81
2018-08-07T10:43:21.333Z,50.81
2018-08-07T10:44:21.219Z,50.22
2018-08-07T10:45:21.153Z,48.97
2018-08-07T10:46:21.147Z,48.97
2018-08-07T10:47:21.024Z,46.62
2018-08-07T10:48:20.960Z,46.82
2018-08-07T10:49:20.889Z,47.11
2018-08-07T10:50:20.826Z,47.02
2018-08-07T10:51:20.764Z,46.92
2018-08-07T10:52:20.748Z,47.92
2018-08-07T10:53:20.627Z,48.97
2018-08-07T10:54:20.568Z,48.09
2018-08-07T10:55:20.502Z,48.77
2018-08-07T10:56:20.431Z,49.29
2018-08-07T10:57:20.372Z,47.63
2018-08-07T10:58:20.315Z,48.02
2018-08-07T10:59:20.235Z,46.94
2018-08-07T11:00:20.169Z,47.72
2018-08-07T11:01:20.104Z,46.94
2018-08-07T11:02:20.040Z,46.94
2018-08-07T11:03:19.979Z,45.76
2018-08-07T11:04:19.912Z,45.89
2018-08-07T11:05:19.843Z,45.30
2018-08-07T11:06:19.785Z,45.20
2018-08-07T11:07:19.721Z,45.20
2018-08-07T11:08:19.650Z,46.28
2018-08-07T11:09:19.584Z,46.86
2018-08-07T11:10:19.516Z,45.40
2018-08-07T11:11:19.458Z,46.08
2018-08-07T11:12:19.383Z,46.08
2018-08-07T11:13:19.321Z,46.97
2018-08-07T11:14:19.259Z,46.97
2018-08-07T11:15:19.192Z,46.89
2018-08-07T11:16:19.124Z,47.18
2018-08-07T11:17:19.060Z,47.67
2018-08-07T11:18:18.993Z,47.18
2018-08-07T11:19:18.930Z,47.38
2018-08-07T11:20:18.864Z,47.79
2018-08-07T11:21:18.802Z,47.69
2018-08-07T11:22:18.736Z,45.34
2018-08-07T11:23:18.674Z,43.68
2018-08-07T11:24:18.642Z,43.09
2018-08-07T11:25:18.540Z,43.68
2018-08-07T11:26:18.484Z,43.09
2018-08-07T11:27:18.413Z,42.41
2018-08-07T11:28:18.352Z,42.60
2018-08-07T11:29:18.288Z,43.19
2018-08-07T11:30:18.215Z,42.21
2018-08-07T11:31:18.153Z,43.29
2018-08-07T11:32:18.095Z,43.31
2018-08-07T11:33:18.021Z,44.19
2018-08-07T11:34:17.960Z,45.07
2018-08-07T11:35:17.900Z,44.19
2018-08-07T11:36:17.830Z,43.31
2018-08-07T11:37:17.761Z,43.82
2018-08-07T11:38:17.700Z,45.39
2018-08-07T11:39:17.633Z,45.19
2018-08-07T11:40:17.575Z,45.19
2018-08-07T11:41:17.520Z,43.65
2018-08-07T11:42:17.440Z,43.74
2018-08-07T11:43:17.376Z,42.47
2018-08-07T11:44:17.309Z,41.88
2018-08-07T11:45:17.246Z,41.90
2018-08-07T11:46:17.186Z,42.00
2018-08-07T11:47:17.122Z,40.53
2018-08-07T11:48:17.067Z,41.02
2018-08-07T11:49:16.988Z,42.19
2018-08-07T11:50:16.922Z,41.02
2018-08-07T11:51:16.866Z,43.37
2018-08-07T11:52:16.797Z,42.19
2018-08-07T11:53:16.737Z,42.88
2018-08-07T11:54:16.667Z,43.66
2018-08-07T11:55:16.601Z,43.86
2018-08-07T11:56:16.574Z,44.06
2018-08-07T11:57:16.480Z,42.51
2018-08-07T11:58:16.412Z,43.59
2018-08-07T11:59:16.364Z,42.21
2018-08-07T12:00:16.287Z,41.43
2018-08-07T12:01:16.232Z,42.72
2018-08-07T12:02:16.203Z,42.04
2018-08-07T12:03:16.090Z,40.96
2018-08-07T12:04:16.032Z,42.14
2018-08-07T12:05:15.967Z,42.16
2018-08-07T12:06:15.905Z,41.56
2018-08-07T12:07:15.847Z,41.08
2018-08-07T12:08:15.776Z,40.98
2018-08-07T12:09:15.712Z,40.98
2018-08-07T12:10:15.645Z,41.29
2018-08-07T12:11:15.581Z,41.00
2018-08-07T12:12:15.518Z,40.90
2018-08-07T12:13:15.454Z,40.61
2018-08-07T12:14:15.391Z,40.51
2018-08-07T12:15:15.328Z,40.13
2018-08-07T12:16:15.338Z,41.11
2018-08-07T12:17:15.211Z,40.92
2018-08-07T12:18:15.144Z,40.45
2018-08-07T12:19:15.075Z,39.76
2018-08-07T12:20:15.016Z,40.05
2018-08-07T12:21:14.951Z,39.37
2018-08-07T12:22:14.893Z,39.95
2018-08-07T12:23:14.824Z,39.58
2018-08-07T12:24:14.759Z,39.17
2018-08-07T12:25:14.697Z,39.18
2018-08-07T12:26:14.632Z,39.18
2018-08-07T12:27:14.571Z,39.97
2018-08-07T12:28:14.509Z,39.31
2018-08-07T12:29:14.448Z,38.12
2018-08-07T12:30:14.391Z,37.51
2018-08-07T12:31:14.319Z,38.12
2018-08-07T12:32:14.257Z,38.62
2018-08-07T12:33:14.214Z,39.12
2018-08-07T12:34:14.132Z,36.76
2018-08-07T12:35:14.119Z,34.89
2018-08-07T12:36:14.013Z,36.86
2018-08-07T12:37:13.967Z,37.37
2018-08-07T12:38:13.895Z,36.29
2018-08-07T12:39:13.828Z,35.99
2018-08-07T12:40:13.767Z,36.21
2018-08-07T12:41:13.723Z,35.24
2018-08-07T12:42:13.652Z,34.36
2018-08-07T12:44:45.175Z,34.31
2018-08-07T12:45:45.069Z,32.06
2018-08-07T12:47:48.986Z,29.52
2018-08-07T12:48:48.875Z,28.04
2018-08-07T12:50:52.732Z,27.17
2018-08-07T12:51:52.669Z,26.39
2018-08-07T12:53:56.578Z,26.50
2018-08-07T12:54:56.502Z,25.72
2018-08-07T12:57:00.362Z,25.95
2018-08-07T12:58:00.265Z,26.15
2018-08-07T12:59:00.210Z,24.24
2018-08-07T13:00:00.165Z,26.15
2018-08-07T13:01:00.102Z,27.64
2018-08-07T13:02:00.046Z,26.34
2018-08-07T13:02:59.991Z,26.74
2018-08-07T13:03:59.966Z,26.65
2018-08-07T13:04:59.886Z,25.46
2018-08-07T13:05:59.840Z,24.65
2018-08-07T13:06:59.785Z,24.44
2018-08-07T13:07:59.724Z,24.80
2018-08-07T13:08:59.680Z,25.70
2018-08-07T13:09:59.620Z,25.00
2018-08-07T13:10:59.568Z,26.38
2018-08-07T13:11:59.515Z,26.08
2018-08-07T13:12:59.464Z,25.39
2018-08-07T13:13:59.404Z,25.49
2018-08-07T13:14:59.349Z,25.68
2018-08-07T13:15:59.295Z,25.18
2018-08-07T13:16:59.244Z,25.97
2018-08-07T13:17:59.184Z,26.06